createdAt,value
2024-03-09T00:00:10.609Z,1010.59
2024-03-09T00:01:10.640Z,1010.61
2024-03-09T00:02:10.729Z,1010.62
2024-03-09T00:03:10.579Z,1010.61
2024-03-09T00:04:10.557Z,1010.57
2024-03-09T00:05:10.589Z,1010.61
2024-03-09T00:06:10.521Z,1010.54
2024-03-09T00:07:10.507Z,1010.54
2024-03-09T00:08:11.173Z,1010.52
2024-03-09T00:09:10.482Z,1010.56
2024-03-09T00:10:10.542Z,1010.54
2024-03-09T00:11:10.532Z,1010.54
2024-03-09T00:12:10.485Z,1010.54
2024-03-09T00:13:10.423Z,1010.55
2024-03-09T00:14:10.463Z,1010.55
2024-03-09T00:15:10.401Z,1010.53
2024-03-09T00:16:10.503Z,1010.49
2024-03-09T00:17:10.490Z,1010.49
2024-03-09T00:18:10.423Z,1010.52
2024-03-09T00:19:10.434Z,1010.49
2024-03-09T00:20:10.336Z,1010.50
2024-03-09T00:21:10.430Z,1010.41
2024-03-09T00:22:10.298Z,1010.41
2024-03-09T00:23:10.609Z,1010.43
2024-03-09T00:24:10.289Z,1010.42
2024-03-09T00:25:10.257Z,1010.39
2024-03-09T00:26:10.339Z,1010.38
2024-03-09T00:27:10.231Z,1010.37
2024-03-09T00:28:10.216Z,1010.37
2024-03-09T00:29:10.331Z,1010.32
2024-03-09T00:30:10.191Z,1010.34
2024-03-09T00:31:10.180Z,1010.34
2024-03-09T00:32:10.194Z,1010.35
2024-03-09T00:33:10.204Z,1010.38
2024-03-09T00:34:10.137Z,1010.33
2024-03-09T00:35:10.282Z,1010.30
2024-03-09T00:36:10.110Z,1010.32
2024-03-09T00:37:10.103Z,1010.28
2024-03-09T00:38:10.112Z,1010.28
2024-03-09T00:39:10.060Z,1010.27
2024-03-09T00:40:10.105Z,1010.30
2024-03-09T00:41:12.761Z,1010.29
2024-03-09T00:42:10.031Z,1010.26
2024-03-09T00:43:10.002Z,1010.22
2024-03-09T00:44:10.011Z,1010.20
2024-03-09T00:45:09.985Z,1010.21
2024-03-09T00:46:09.958Z,1010.15
2024-03-09T00:47:09.981Z,1010.20
2024-03-09T00:48:09.969Z,1010.17
2024-03-09T00:49:09.927Z,1010.19
2024-03-09T00:50:09.971Z,1010.14
2024-03-09T00:51:09.892Z,1010.15
2024-03-09T00:52:09.973Z,1010.17
2024-03-09T00:53:09.934Z,1010.13
2024-03-09T00:54:09.856Z,1010.11
2024-03-09T00:55:09.831Z,1010.16
2024-03-09T00:56:10.056Z,1010.10
2024-03-09T00:57:09.807Z,1010.08
2024-03-09T00:58:09.793Z,1010.07
2024-03-09T00:59:10.838Z,1010.08
2024-03-09T01:00:09.760Z,1010.08
2024-03-09T01:01:09.818Z,1010.06
2024-03-09T01:02:09.794Z,1010.03
2024-03-09T01:03:09.726Z,1010.07
2024-03-09T01:04:09.709Z,1010.05
2024-03-09T01:05:09.805Z,1010.00
2024-03-09T01:06:09.672Z,1010.00
2024-03-09T01:07:09.662Z,1009.97
2024-03-09T01:08:09.684Z,1009.97
2024-03-09T01:09:09.630Z,1009.97
2024-03-09T01:10:09.636Z,1009.98
2024-03-09T01:11:09.721Z,1009.94
2024-03-09T01:12:09.618Z,1009.95
2024-03-09T01:13:09.583Z,1009.93
2024-03-09T01:14:09.600Z,1009.85
2024-03-09T01:15:09.557Z,1009.87
2024-03-09T01:16:09.555Z,1009.86
2024-03-09T01:17:09.564Z,1009.86
2024-03-09T01:18:09.581Z,1009.84
2024-03-09T01:19:09.487Z,1009.82
2024-03-09T01:20:09.840Z,1009.81
2024-03-09T01:21:09.471Z,1009.83
2024-03-09T01:22:09.445Z,1009.81
2024-03-09T01:23:09.519Z,1009.81
2024-03-09T01:24:09.418Z,1009.85
2024-03-09T01:25:09.405Z,1009.83
2024-03-09T01:26:09.430Z,1009.82
2024-03-09T01:27:09.400Z,1009.80
2024-03-09T01:28:09.356Z,1009.82
2024-03-09T01:29:09.377Z,1009.85
2024-03-09T01:30:09.331Z,1009.83
2024-03-09T01:31:09.315Z,1009.81
2024-03-09T01:32:09.335Z,1009.80
2024-03-09T01:33:09.470Z,1009.84
2024-03-09T01:34:09.273Z,1009.83
2024-03-09T01:35:09.421Z,1009.79
2024-03-09T01:36:11.674Z,1009.82
2024-03-09T01:37:09.237Z,1009.82
2024-03-09T01:38:09.305Z,1009.77
2024-03-09T01:39:09.201Z,1009.76
2024-03-09T01:40:09.186Z,1009.76
2024-03-09T01:41:09.242Z,1009.76
2024-03-09T01:42:09.159Z,1009.74
2024-03-09T01:43:09.153Z,1009.81
2024-03-09T01:44:09.204Z,1009.76
2024-03-09T01:45:09.150Z,1009.77
2024-03-09T01:46:09.099Z,1009.67
2024-03-09T01:47:09.110Z,1009.73
2024-03-09T01:48:09.088Z,1009.74
2024-03-09T01:49:09.056Z,1009.75
2024-03-09T01:50:09.161Z,1009.78
2024-03-09T01:51:09.023Z,1009.77
2024-03-09T01:52:09.022Z,1009.76
2024-03-09T01:53:09.064Z,1009.77
2024-03-09T01:54:08.981Z,1009.76
2024-03-09T01:55:08.966Z,1009.74
2024-03-09T01:56:09.026Z,1009.72
2024-03-09T01:57:08.983Z,1009.70
2024-03-09T01:58:08.934Z,1009.68
2024-03-09T01:59:08.935Z,1009.68
2024-03-09T02:00:08.907Z,1009.62
2024-03-09T02:01:08.897Z,1009.64
2024-03-09T02:02:08.918Z,1009.66
2024-03-09T02:03:08.854Z,1009.59
2024-03-09T02:04:08.839Z,1009.59
2024-03-09T02:05:08.914Z,1009.61
2024-03-09T02:06:08.819Z,1009.60
2024-03-09T02:07:08.794Z,1009.60
2024-03-09T02:08:08.840Z,1009.56
2024-03-09T02:09:08.775Z,1009.53
2024-03-09T02:10:08.759Z,1009.56
2024-03-09T02:11:08.862Z,1009.52
2024-03-09T02:12:08.770Z,1009.53
2024-03-09T02:13:08.737Z,1009.49
2024-03-09T02:14:08.744Z,1009.49
2024-03-09T02:15:08.680Z,1009.49
2024-03-09T02:16:08.668Z,1009.48
2024-03-09T02:17:08.760Z,1009.45
2024-03-09T02:18:08.661Z,1009.48
2024-03-09T02:19:08.619Z,1009.47
2024-03-09T02:20:08.641Z,1009.48
2024-03-09T02:21:08.599Z,1009.44
2024-03-09T02:22:08.583Z,1009.43
2024-03-09T02:23:08.605Z,1009.44
2024-03-09T02:24:08.549Z,1009.43
2024-03-09T02:25:08.547Z,1009.40
2024-03-09T02:26:08.559Z,1009.43
2024-03-09T02:27:08.556Z,1009.41
2024-03-09T02:28:08.502Z,1009.38
2024-03-09T02:29:08.580Z,1009.41
2024-03-09T02:30:08.476Z,1009.40
2024-03-09T02:31:08.460Z,1009.36
2024-03-09T02:32:08.891Z,1009.34
2024-03-09T02:33:08.462Z,1009.37
2024-03-09T02:34:08.406Z,1009.35
2024-03-09T02:35:08.454Z,1009.35
2024-03-09T02:36:08.375Z,1009.39
2024-03-09T02:37:08.357Z,1009.37
2024-03-09T02:38:08.375Z,1009.35
2024-03-09T02:39:08.339Z,1009.35
2024-03-09T02:40:08.328Z,1009.36
2024-03-09T02:41:08.452Z,1009.33
2024-03-09T02:42:08.296Z,1009.33
2024-03-09T02:43:08.345Z,1009.32
2024-03-09T02:44:08.316Z,1009.30
2024-03-09T02:45:08.250Z,1009.28
2024-03-09T02:46:08.230Z,1009.27
2024-03-09T02:47:08.305Z,1009.27
2024-03-09T02:48:08.239Z,1009.27
2024-03-09T02:49:08.204Z,1009.27
2024-03-09T02:50:08.267Z,1009.26
2024-03-09T02:51:08.155Z,1009.30
2024-03-09T02:52:08.147Z,1009.27
2024-03-09T02:53:08.181Z,1009.25
2024-03-09T02:54:08.105Z,1009.25
2024-03-09T02:55:08.101Z,1009.20
2024-03-09T02:56:08.165Z,1009.21
2024-03-09T02:57:08.080Z,1009.15
2024-03-09T02:58:08.056Z,1009.17
2024-03-09T02:59:08.108Z,1009.18
2024-03-09T03:00:08.024Z,1009.17
2024-03-09T03:01:08.022Z,1009.20
2024-03-09T03:02:08.029Z,1009.19
2024-03-09T03:03:07.988Z,1009.18
2024-03-09T03:04:07.965Z,1009.14
2024-03-09T03:05:08.035Z,1009.18
2024-03-09T03:06:07.942Z,1009.19
2024-03-09T03:07:07.923Z,1009.19
2024-03-09T03:08:07.964Z,1009.17
2024-03-09T03:09:07.890Z,1009.17
2024-03-09T03:10:07.875Z,1009.20
2024-03-09T03:11:07.908Z,1009.18
2024-03-09T03:12:07.867Z,1009.17
2024-03-09T03:13:07.846Z,1009.13
2024-03-09T03:14:07.926Z,1009.17
2024-03-09T03:15:07.802Z,1009.17
2024-03-09T03:16:07.802Z,1009.16
2024-03-09T03:17:07.890Z,1009.16
2024-03-09T03:18:07.833Z,1009.11
2024-03-09T03:19:08.109Z,1009.08
2024-03-09T03:20:07.761Z,1009.13
2024-03-09T03:21:07.727Z,1009.08
2024-03-09T03:22:07.699Z,1009.11
2024-03-09T03:23:07.745Z,1009.10
2024-03-09T03:24:07.669Z,1009.04
2024-03-09T03:25:07.657Z,1009.10
2024-03-09T03:26:10.448Z,1009.07
2024-03-09T03:27:07.622Z,1009.06
2024-03-09T03:28:07.609Z,1009.01
2024-03-09T03:29:07.752Z,1009.00
2024-03-09T03:30:07.584Z,1009.04
2024-03-09T03:31:07.581Z,1008.98
2024-03-09T03:32:07.585Z,1009.00
2024-03-09T03:33:07.757Z,1008.99
2024-03-09T03:34:07.518Z,1009.01
2024-03-09T03:35:07.548Z,1008.94
2024-03-09T03:36:07.513Z,1008.98
2024-03-09T03:37:07.484Z,1008.94
2024-03-09T03:38:07.863Z,1008.91
2024-03-09T03:39:07.444Z,1008.91
2024-03-09T03:40:07.456Z,1008.83
2024-03-09T03:41:07.601Z,1008.85
2024-03-09T03:42:07.402Z,1008.89
2024-03-09T03:43:07.399Z,1008.89
2024-03-09T03:44:07.517Z,1008.83
2024-03-09T03:45:07.363Z,1008.85
2024-03-09T03:46:07.352Z,1008.87
2024-03-09T03:47:07.351Z,1008.82
2024-03-09T03:48:07.352Z,1008.85
2024-03-09T03:49:07.306Z,1008.87
2024-03-09T03:50:07.305Z,1008.78
2024-03-09T03:51:07.274Z,1008.84
2024-03-09T03:52:07.282Z,1008.85
2024-03-09T03:53:07.372Z,1008.84
2024-03-09T03:54:07.220Z,1008.84
2024-03-09T03:55:07.266Z,1008.88
2024-03-09T03:56:07.275Z,1008.85
2024-03-09T03:57:07.175Z,1008.86
2024-03-09T03:58:07.166Z,1008.82
2024-03-09T03:59:07.225Z,1008.78
2024-03-09T04:00:07.147Z,1008.78
2024-03-09T04:01:07.355Z,1008.74
2024-03-09T04:02:07.127Z,1008.73
2024-03-09T04:03:07.088Z,1008.74
2024-03-09T04:04:07.082Z,1008.73
2024-03-09T04:05:07.153Z,1008.76
2024-03-09T04:06:07.157Z,1008.70
2024-03-09T04:07:14.223Z,1008.70
2024-03-09T04:09:00.159Z,1008.70
2024-03-09T04:10:00.142Z,1008.69
2024-03-09T04:11:53.099Z,1008.70
2024-03-09T04:12:52.992Z,1008.75
2024-03-09T04:14:46.075Z,1008.66
2024-03-09T04:15:46.053Z,1008.64
2024-03-09T04:17:39.049Z,1008.65
2024-03-09T04:18:38.973Z,1008.63
2024-03-09T04:20:42.993Z,1008.64
2024-03-09T04:21:42.966Z,1008.60
2024-03-09T04:23:36.113Z,1008.61
2024-03-09T04:24:36.090Z,1008.59
2024-03-09T04:26:29.196Z,1008.57
2024-03-09T04:27:29.161Z,1008.56
2024-03-09T04:28:29.633Z,1008.53
2024-03-09T04:29:29.123Z,1008.53
2024-03-09T04:30:29.118Z,1008.51
2024-03-09T04:31:29.122Z,1008.51
2024-03-09T04:32:29.123Z,1008.45
2024-03-09T04:33:30.305Z,1008.48
2024-03-09T04:34:29.076Z,1008.47
2024-03-09T04:35:29.031Z,1008.40
2024-03-09T04:36:29.020Z,1008.39
2024-03-09T04:37:29.131Z,1008.38
2024-03-09T04:38:29.001Z,1008.38
2024-03-09T04:39:28.976Z,1008.34
2024-03-09T04:40:29.025Z,1008.33
2024-03-09T04:41:28.949Z,1008.36
2024-03-09T04:42:28.927Z,1008.29
2024-03-09T04:43:28.971Z,1008.30
2024-03-09T04:44:30.993Z,1008.31
2024-03-09T04:45:28.894Z,1008.30
2024-03-09T04:46:28.880Z,1008.29
2024-03-09T04:47:28.863Z,1008.35
2024-03-09T04:48:28.836Z,1008.33
2024-03-09T04:49:28.882Z,1008.30
2024-03-09T04:50:28.811Z,1008.28
2024-03-09T04:51:28.811Z,1008.30
2024-03-09T04:52:28.798Z,1008.25
2024-03-09T04:53:28.758Z,1008.28
2024-03-09T04:54:28.748Z,1008.28
2024-03-09T04:55:28.848Z,1008.28
2024-03-09T04:56:28.735Z,1008.29
2024-03-09T04:57:28.700Z,1008.26
2024-03-09T04:58:28.832Z,1008.28
2024-03-09T04:59:28.669Z,1008.23
2024-03-09T05:00:28.663Z,1008.25
2024-03-09T05:01:28.690Z,1008.25
2024-03-09T05:02:28.633Z,1008.22
2024-03-09T05:03:28.607Z,1008.20
2024-03-09T05:04:28.640Z,1008.27
2024-03-09T05:05:28.605Z,1008.26
2024-03-09T05:06:28.567Z,1008.26
2024-03-09T05:07:28.586Z,1008.23
2024-03-09T05:08:28.537Z,1008.20
2024-03-09T05:09:28.522Z,1008.22
2024-03-09T05:10:28.519Z,1008.20
2024-03-09T05:11:28.583Z,1008.21
2024-03-09T05:12:28.487Z,1008.16
2024-03-09T05:13:28.573Z,1008.14
2024-03-09T05:14:28.451Z,1008.13
2024-03-09T05:15:28.434Z,1008.16
2024-03-09T05:16:29.959Z,1008.14
2024-03-09T05:17:28.523Z,1008.07
2024-03-09T05:18:28.460Z,1008.12
2024-03-09T05:19:28.399Z,1008.12
2024-03-09T05:20:28.355Z,1008.10
2024-03-09T05:21:28.347Z,1008.02
2024-03-09T05:22:28.338Z,1008.01
2024-03-09T05:23:28.379Z,1008.08
2024-03-09T05:24:28.290Z,1008.06
2024-03-09T05:25:28.547Z,1008.08
2024-03-09T05:26:28.273Z,1008.04
2024-03-09T05:27:28.249Z,1008.02
2024-03-09T05:28:28.264Z,1008.00
2024-03-09T05:29:28.218Z,1008.03
2024-03-09T05:30:28.211Z,1008.05
2024-03-09T05:31:28.359Z,1008.05
2024-03-09T05:32:28.226Z,1008.09
2024-03-09T05:33:28.157Z,1008.09
2024-03-09T05:34:28.295Z,1008.12
2024-03-09T05:35:28.130Z,1008.13
2024-03-09T05:36:28.248Z,1008.12
2024-03-09T05:37:28.309Z,1008.19
2024-03-09T05:38:28.174Z,1008.10
2024-03-09T05:39:28.060Z,1008.09
2024-03-09T05:40:28.232Z,1008.17
2024-03-09T05:41:28.109Z,1008.01
2024-03-09T05:42:28.075Z,1008.07
2024-03-09T05:43:28.062Z,1008.15
2024-03-09T05:44:28.004Z,1008.12
2024-03-09T05:45:27.981Z,1008.04
2024-03-09T05:46:28.469Z,1008.06
2024-03-09T05:47:27.950Z,1008.08
2024-03-09T05:48:27.940Z,1008.09
2024-03-09T05:49:27.940Z,1008.05
2024-03-09T05:50:27.894Z,1008.07
2024-03-09T05:51:27.885Z,1008.09
2024-03-09T05:52:27.895Z,1007.88
2024-03-09T05:53:27.905Z,1007.94
2024-03-09T05:54:27.835Z,1008.00
2024-03-09T05:55:27.855Z,1007.93
2024-03-09T05:56:27.806Z,1007.97
2024-03-09T05:57:27.795Z,1007.98
2024-03-09T05:58:27.812Z,1007.98
2024-03-09T05:59:27.771Z,1007.95
2024-03-09T06:00:27.759Z,1007.96
2024-03-09T06:01:27.802Z,1007.94
2024-03-09T06:02:27.710Z,1007.94
2024-03-09T06:03:27.701Z,1007.93
2024-03-09T06:04:27.720Z,1007.97
2024-03-09T06:05:27.674Z,1007.94
2024-03-09T06:06:27.652Z,1007.88
2024-03-09T06:07:27.664Z,1007.92
2024-03-09T06:08:27.621Z,1007.94
2024-03-09T06:09:27.617Z,1007.93
2024-03-09T06:10:27.984Z,1007.98
2024-03-09T06:11:27.612Z,1007.99
2024-03-09T06:12:27.604Z,1008.01
2024-03-09T06:13:27.638Z,1008.00
2024-03-09T06:14:27.529Z,1008.01
2024-03-09T06:15:27.513Z,1007.96
2024-03-09T06:16:27.544Z,1008.00
2024-03-09T06:17:27.490Z,1008.03
2024-03-09T06:18:27.474Z,1008.00
2024-03-09T06:19:27.493Z,1007.93
2024-03-09T06:20:27.448Z,1007.96
2024-03-09T06:21:27.440Z,1007.99
2024-03-09T06:22:27.408Z,1007.93
2024-03-09T06:23:27.399Z,1007.92
2024-03-09T06:24:27.382Z,1007.90
2024-03-09T06:25:27.957Z,1007.90
2024-03-09T06:26:27.353Z,1007.87
2024-03-09T06:27:27.341Z,1007.90
2024-03-09T06:28:27.377Z,1007.92
2024-03-09T06:29:27.310Z,1007.90
2024-03-09T06:30:30.794Z,1007.93
2024-03-09T06:31:27.280Z,1007.93
2024-03-09T06:32:27.290Z,1007.93
2024-03-09T06:33:27.245Z,1007.95
2024-03-09T06:34:27.238Z,1007.95
2024-03-09T06:35:27.390Z,1007.89
2024-03-09T06:36:27.211Z,1007.96
2024-03-09T06:37:27.189Z,1007.98
2024-03-09T06:38:27.178Z,1007.92
2024-03-09T06:39:27.160Z,1007.90
2024-03-09T06:40:27.143Z,1007.93
2024-03-09T06:42:27.123Z,1007.94
2024-03-09T06:43:27.100Z,1007.99
2024-03-09T06:44:27.106Z,1007.92
2024-03-09T06:45:27.074Z,1007.91
2024-03-09T06:46:27.061Z,1007.93
2024-03-09T06:47:27.062Z,1007.95
2024-03-09T06:48:27.025Z,1007.99
2024-03-09T06:49:27.022Z,1007.94
2024-03-09T06:50:27.002Z,1007.84
2024-03-09T06:51:26.988Z,1007.88
2024-03-09T06:52:26.972Z,1007.94
2024-03-09T06:53:27.042Z,1007.94
2024-03-09T06:54:26.943Z,1007.94
2024-03-09T06:55:27.108Z,1007.95
2024-03-09T06:56:26.992Z,1007.98
2024-03-09T06:57:27.006Z,1007.91
2024-03-09T06:58:26.894Z,1007.89
2024-03-09T06:59:26.870Z,1007.85
2024-03-09T07:00:26.876Z,1007.90
2024-03-09T07:01:26.930Z,1007.87
2024-03-09T07:02:26.833Z,1007.89
2024-03-09T07:03:26.827Z,1007.90
2024-03-09T07:04:26.806Z,1007.87
2024-03-09T07:05:26.784Z,1007.85
2024-03-09T07:06:26.784Z,1007.79
2024-03-09T07:07:26.752Z,1007.86
2024-03-09T07:08:26.808Z,1007.85
2024-03-09T07:09:26.812Z,1007.82
2024-03-09T07:10:26.706Z,1007.81
2024-03-09T07:11:26.729Z,1007.85
2024-03-09T07:12:26.708Z,1007.86
2024-03-09T07:13:26.680Z,1007.86
2024-03-09T07:14:26.657Z,1007.84
2024-03-09T07:15:26.638Z,1007.80
2024-03-09T07:16:26.621Z,1007.81
2024-03-09T07:17:26.605Z,1007.80
2024-03-09T07:18:26.639Z,1007.82
2024-03-09T07:19:26.586Z,1007.84
2024-03-09T07:20:26.572Z,1007.79
2024-03-09T07:21:26.547Z,1007.78
2024-03-09T07:22:26.536Z,1007.77
2024-03-09T07:23:26.610Z,1007.72
2024-03-09T07:24:26.500Z,1007.72
2024-03-09T07:25:27.057Z,1007.72
2024-03-09T07:26:26.474Z,1007.72
2024-03-09T07:27:26.467Z,1007.69
2024-03-09T07:28:26.449Z,1007.67
2024-03-09T07:29:26.438Z,1007.72
2024-03-09T07:30:26.497Z,1007.69
2024-03-09T07:31:26.401Z,1007.67
2024-03-09T07:32:26.460Z,1007.69
2024-03-09T07:33:26.369Z,1007.69
2024-03-09T07:34:26.366Z,1007.62
2024-03-09T07:35:26.709Z,1007.62
2024-03-09T07:36:26.328Z,1007.64
2024-03-09T07:37:26.317Z,1007.61
2024-03-09T07:38:26.342Z,1007.62
2024-03-09T07:39:26.285Z,1007.64
2024-03-09T07:40:26.271Z,1007.62
2024-03-09T07:41:26.304Z,1007.60
2024-03-09T07:42:26.238Z,1007.69
2024-03-09T07:43:26.225Z,1007.70
2024-03-09T07:44:26.266Z,1007.64
2024-03-09T07:45:26.231Z,1007.62
2024-03-09T07:46:26.189Z,1007.69
2024-03-09T07:47:26.187Z,1007.59
2024-03-09T07:48:26.156Z,1007.60
2024-03-09T07:49:26.139Z,1007.56
2024-03-09T07:50:26.151Z,1007.58
2024-03-09T07:51:26.116Z,1007.66
2024-03-09T07:52:26.097Z,1007.66
2024-03-09T07:53:26.142Z,1007.56
2024-03-09T07:54:26.072Z,1007.51
2024-03-09T07:55:26.154Z,1007.47
2024-03-09T07:56:26.103Z,1007.46
2024-03-09T07:57:26.026Z,1007.53
2024-03-09T07:58:27.406Z,1007.66
2024-03-09T07:59:25.996Z,1007.56
2024-03-09T08:00:25.988Z,1007.62
2024-03-09T08:01:25.980Z,1007.64
2024-03-09T08:02:26.013Z,1007.61
2024-03-09T08:03:25.941Z,1007.63
2024-03-09T08:04:26.020Z,1007.62
2024-03-09T08:05:25.988Z,1007.63
2024-03-09T08:06:25.911Z,1007.64
2024-03-09T08:07:25.884Z,1007.64
2024-03-09T08:08:26.010Z,1007.63
2024-03-09T08:09:25.866Z,1007.61
2024-03-09T08:10:25.857Z,1007.61
2024-03-09T08:11:25.908Z,1007.58
2024-03-09T08:12:25.819Z,1007.66
2024-03-09T08:13:25.806Z,1007.62
2024-03-09T08:14:25.790Z,1007.59
2024-03-09T08:15:25.802Z,1007.64
2024-03-09T08:16:25.761Z,1007.53
2024-03-09T08:17:25.856Z,1007.55
2024-03-09T08:18:25.806Z,1007.54
2024-03-09T08:19:25.722Z,1007.54
2024-03-09T08:20:25.763Z,1007.54
2024-03-09T08:21:25.690Z,1007.48
2024-03-09T08:22:25.681Z,1007.48
2024-03-09T08:23:25.695Z,1007.49
2024-03-09T08:24:25.656Z,1007.43
2024-03-09T08:25:25.641Z,1007.45
2024-03-09T08:26:25.653Z,1007.43
2024-03-09T08:27:25.645Z,1007.41
2024-03-09T08:28:25.602Z,1007.40
2024-03-09T08:29:25.583Z,1007.30
2024-03-09T08:30:25.612Z,1007.36
2024-03-09T08:31:25.564Z,1007.34
2024-03-09T08:32:25.553Z,1007.35
2024-03-09T08:33:25.540Z,1007.33
2024-03-09T08:34:25.515Z,1007.31
2024-03-09T08:35:25.497Z,1007.28
2024-03-09T08:36:25.495Z,1007.20
2024-03-09T08:37:25.474Z,1007.22
2024-03-09T08:38:25.569Z,1007.15
2024-03-09T08:39:25.449Z,1007.12
2024-03-09T08:40:25.433Z,1007.18
2024-03-09T08:41:25.480Z,1007.19
2024-03-09T08:42:25.405Z,1007.15
2024-03-09T08:43:25.396Z,1007.18
2024-03-09T08:44:25.385Z,1007.11
2024-03-09T08:45:25.661Z,1007.08
2024-03-09T08:46:25.355Z,1007.09
2024-03-09T08:47:25.359Z,1007.08
2024-03-09T08:48:25.331Z,1007.08
2024-03-09T08:49:25.431Z,1007.02
2024-03-09T08:50:25.340Z,1007.00
2024-03-09T08:51:25.286Z,1007.00
2024-03-09T08:52:25.290Z,1006.99
2024-03-09T08:53:25.337Z,1006.97
2024-03-09T08:54:25.250Z,1006.89
2024-03-09T08:55:25.498Z,1007.01
2024-03-09T08:56:25.221Z,1006.91
2024-03-09T08:57:25.213Z,1006.92
2024-03-09T08:58:25.196Z,1006.93
2024-03-09T08:59:25.241Z,1006.89
2024-03-09T09:00:25.175Z,1006.89
2024-03-09T09:01:25.193Z,1006.88
2024-03-09T09:02:25.253Z,1006.89
2024-03-09T09:03:25.147Z,1006.88
2024-03-09T09:04:25.131Z,1006.89
2024-03-09T09:05:25.116Z,1006.91
2024-03-09T09:06:25.093Z,1006.86
2024-03-09T09:07:25.094Z,1006.88
2024-03-09T09:08:25.148Z,1006.86
2024-03-09T09:09:25.066Z,1006.90
2024-03-09T09:10:25.051Z,1006.77
2024-03-09T09:11:25.124Z,1006.77
2024-03-09T09:12:25.014Z,1006.83
2024-03-09T09:13:25.010Z,1006.79
2024-03-09T09:14:24.993Z,1006.77
2024-03-09T09:15:24.976Z,1006.81
2024-03-09T09:16:24.962Z,1006.80
2024-03-09T09:17:24.959Z,1006.78
2024-03-09T09:18:25.094Z,1006.75
2024-03-09T09:19:24.924Z,1006.71
2024-03-09T09:20:24.997Z,1006.73
2024-03-09T09:21:24.915Z,1006.70
2024-03-09T09:22:24.898Z,1006.70
2024-03-09T09:23:24.930Z,1006.68
2024-03-09T09:24:24.865Z,1006.64
2024-03-09T09:25:28.340Z,1006.62
2024-03-09T09:26:24.905Z,1006.63
2024-03-09T09:27:24.827Z,1006.61
2024-03-09T09:28:24.812Z,1006.57
2024-03-09T09:29:24.805Z,1006.57
2024-03-09T09:30:24.783Z,1006.55
2024-03-09T09:31:24.781Z,1006.60
2024-03-09T09:32:25.236Z,1006.56
2024-03-09T09:33:24.813Z,1006.60
2024-03-09T09:34:24.741Z,1006.53
2024-03-09T09:35:24.738Z,1006.53
2024-03-09T09:36:24.757Z,1006.53
2024-03-09T09:37:24.708Z,1006.52
2024-03-09T09:38:24.744Z,1006.51
2024-03-09T09:39:24.752Z,1006.49
2024-03-09T09:40:24.676Z,1006.46
2024-03-09T09:41:24.649Z,1006.43
2024-03-09T09:42:24.655Z,1006.42
2024-03-09T09:43:24.632Z,1006.38
2024-03-09T09:44:24.690Z,1006.42
2024-03-09T09:45:24.704Z,1006.34
2024-03-09T09:46:24.634Z,1006.40
2024-03-09T09:47:24.679Z,1006.33
2024-03-09T09:48:24.611Z,1006.30
2024-03-09T09:49:24.628Z,1006.30
2024-03-09T09:50:24.636Z,1006.31
2024-03-09T09:51:24.538Z,1006.28
2024-03-09T09:52:24.533Z,1006.30
2024-03-09T09:53:24.571Z,1006.26
2024-03-09T09:54:24.499Z,1006.29
2024-03-09T09:55:24.508Z,1006.28
2024-03-09T09:56:24.544Z,1006.23
2024-03-09T09:57:24.455Z,1006.21
2024-03-09T09:58:24.459Z,1006.17
2024-03-09T09:59:24.494Z,1006.21
2024-03-09T10:00:25.157Z,1006.20
2024-03-09T10:01:24.452Z,1006.16
2024-03-09T10:02:24.856Z,1006.14
2024-03-09T10:03:24.384Z,1006.20
2024-03-09T10:04:24.398Z,1006.12
2024-03-09T10:05:24.389Z,1006.02
2024-03-09T10:06:24.382Z,1006.05
2024-03-09T10:07:24.339Z,1006.02
2024-03-09T10:08:24.387Z,1006.01
2024-03-09T10:09:24.328Z,1006.08
2024-03-09T10:10:24.300Z,1006.03
2024-03-09T10:11:24.381Z,1006.01
2024-03-09T10:12:24.692Z,1006.00
2024-03-09T10:13:24.266Z,1006.02
2024-03-09T10:14:24.253Z,1006.04
2024-03-09T10:15:24.267Z,1005.94
2024-03-09T10:16:24.233Z,1005.92
2024-03-09T10:17:24.289Z,1005.93
2024-03-09T10:18:24.204Z,1006.01
2024-03-09T10:19:24.230Z,1005.97
2024-03-09T10:20:24.241Z,1005.91
2024-03-09T10:21:24.168Z,1005.99
2024-03-09T10:22:24.157Z,1005.99
2024-03-09T10:23:24.167Z,1005.95
2024-03-09T10:24:24.141Z,1005.97
2024-03-09T10:25:24.142Z,1005.93
2024-03-09T10:26:24.179Z,1006.00
2024-03-09T10:27:24.100Z,1006.00
2024-03-09T10:28:24.084Z,1006.01
2024-03-09T10:29:24.085Z,1005.99
2024-03-09T10:30:24.064Z,1005.99
2024-03-09T10:31:24.052Z,1006.01
2024-03-09T10:32:24.140Z,1006.04
2024-03-09T10:33:24.107Z,1005.95
2024-03-09T10:34:24.014Z,1006.02
2024-03-09T10:35:24.033Z,1005.98
2024-03-09T10:36:23.993Z,1006.02
2024-03-09T10:37:23.981Z,1005.99
2024-03-09T10:38:24.109Z,1005.99
2024-03-09T10:39:23.957Z,1006.03
2024-03-09T10:40:23.946Z,1005.98
2024-03-09T10:41:24.050Z,1005.98
2024-03-09T10:42:23.925Z,1005.96
2024-03-09T10:43:23.914Z,1005.95
2024-03-09T10:44:23.956Z,1005.90
2024-03-09T10:45:26.169Z,1005.88
2024-03-09T10:46:23.878Z,1005.83
2024-03-09T10:47:23.869Z,1005.87
2024-03-09T10:48:23.854Z,1005.77
2024-03-09T10:49:23.849Z,1005.77
2024-03-09T10:50:23.910Z,1005.75
2024-03-09T10:51:25.645Z,1005.72
2024-03-09T10:52:23.810Z,1005.74
2024-03-09T10:53:23.801Z,1005.86
2024-03-09T10:54:23.792Z,1005.72
2024-03-09T10:55:23.783Z,1005.70
2024-03-09T10:56:23.822Z,1005.66
2024-03-09T10:57:23.793Z,1005.66
2024-03-09T10:58:23.751Z,1005.62
2024-03-09T10:59:23.753Z,1005.63
2024-03-09T11:00:23.724Z,1005.64
2024-03-09T11:01:24.338Z,1005.67
2024-03-09T11:02:23.716Z,1005.59
2024-03-09T11:03:24.672Z,1005.59
2024-03-09T11:04:23.678Z,1005.58
2024-03-09T11:05:23.703Z,1005.52
2024-03-09T11:06:24.005Z,1005.52
2024-03-09T11:07:23.645Z,1005.57
2024-03-09T11:08:23.746Z,1005.35
2024-03-09T11:09:23.621Z,1005.40
2024-03-09T11:10:23.623Z,1005.39
2024-03-09T11:11:23.678Z,1005.34
2024-03-09T11:12:23.656Z,1005.44
2024-03-09T11:13:23.605Z,1005.40
2024-03-09T11:14:23.625Z,1005.36
2024-03-09T11:15:23.559Z,1005.30
2024-03-09T11:16:23.546Z,1005.30
2024-03-09T11:17:23.732Z,1005.33
2024-03-09T11:18:24.410Z,1005.32
2024-03-09T11:19:23.517Z,1005.28
2024-03-09T11:20:23.545Z,1005.33
2024-03-09T11:21:23.496Z,1005.28
2024-03-09T11:22:23.478Z,1005.29
2024-03-09T11:23:23.576Z,1005.30
2024-03-09T11:24:23.454Z,1005.38
2024-03-09T11:25:23.456Z,1005.36
2024-03-09T11:26:23.470Z,1005.33
2024-03-09T11:27:23.421Z,1005.30
2024-03-09T11:28:23.413Z,1005.31
2024-03-09T11:29:23.484Z,1005.34
2024-03-09T11:30:23.392Z,1005.30
2024-03-09T11:31:23.382Z,1005.26
2024-03-09T11:32:23.418Z,1005.19
2024-03-09T11:33:23.358Z,1005.27
2024-03-09T11:34:23.362Z,1005.26
2024-03-09T11:35:23.403Z,1005.16
2024-03-09T11:36:23.330Z,1005.10
2024-03-09T11:37:23.317Z,1005.12
2024-03-09T11:38:23.324Z,1005.15
2024-03-09T11:39:23.384Z,1005.14
2024-03-09T11:40:23.290Z,1005.19
2024-03-09T11:41:23.273Z,1005.11
2024-03-09T11:42:23.267Z,1005.08
2024-03-09T11:43:23.252Z,1005.11
2024-03-09T11:44:23.292Z,1005.11
2024-03-09T11:45:24.909Z,1005.09
2024-03-09T11:46:23.228Z,1004.99
2024-03-09T11:47:23.385Z,1005.13
2024-03-09T11:48:23.263Z,1005.05
2024-03-09T11:49:23.186Z,1004.97
2024-03-09T11:50:23.275Z,1004.96
2024-03-09T11:51:23.171Z,1005.08
2024-03-09T11:52:23.157Z,1005.09
2024-03-09T11:53:23.156Z,1004.99
2024-03-09T11:54:23.137Z,1004.99
2024-03-09T11:55:23.127Z,1005.00
2024-03-09T11:56:23.186Z,1004.99
2024-03-09T11:57:23.112Z,1004.96
2024-03-09T11:58:23.121Z,1004.98
2024-03-09T11:59:23.111Z,1004.97
2024-03-09T12:00:23.097Z,1004.98
2024-03-09T12:01:23.103Z,1004.95
2024-03-09T12:02:23.141Z,1004.96
2024-03-09T12:03:23.048Z,1004.94
2024-03-09T12:04:23.039Z,1004.89
2024-03-09T12:05:23.091Z,1004.93
2024-03-09T12:06:23.017Z,1004.88
2024-03-09T12:07:23.012Z,1004.97
2024-03-09T12:08:23.034Z,1004.96
2024-03-09T12:09:23.022Z,1004.90
2024-03-09T12:10:22.984Z,1004.86
2024-03-09T12:11:23.062Z,1004.85
2024-03-09T12:12:22.966Z,1004.86